sensor_id;sensor_type;location;lat;lon;timestamp;temperature;humidity
44431;DHT22;30135;47.866;-4.222;2022-07-10T00:01:55;21.40;61.90
44431;DHT22;30135;47.866;-4.222;2022-07-10T00:04:22;21.40;61.90
44431;DHT22;30135;47.866;-4.222;2022-07-10T00:06:48;21.40;62.00
44431;DHT22;30135;47.866;-4.222;2022-07-10T00:09:14;21.40;62.10
44431;DHT22;30135;47.866;-4.222;2022-07-10T00:11:41;21.30;62.10
44431;DHT22;30135;47.866;-4.222;2022-07-10T00:14:08;21.30;62.20
44431;DHT22;30135;47.866;-4.222;2022-07-10T00:16:34;21.30;62.30
44431;DHT22;30135;47.866;-4.222;2022-07-10T00:19:00;21.20;62.30
44431;DHT22;30135;47.866;-4.222;2022-07-10T00:21:26;21.30;62.50
44431;DHT22;30135;47.866;-4.222;2022-07-10T00:23:52;21.20;62.40
44431;DHT22;30135;47.866;-4.222;2022-07-10T00:26:18;21.20;62.50
44431;DHT22;30135;47.866;-4.222;2022-07-10T00:28:44;21.20;62.50
44431;DHT22;30135;47.866;-4.222;2022-07-10T00:31:11;21.20;62.60
44431;DHT22;30135;47.866;-4.222;2022-07-10T00:33:37;21.10;62.70
44431;DHT22;30135;47.866;-4.222;2022-07-10T00:36:04;21.10;62.80
44431;DHT22;30135;47.866;-4.222;2022-07-10T00:38:32;21.10;62.90
44431;DHT22;30135;47.866;-4.222;2022-07-10T00:40:58;21.10;63.00
44431;DHT22;30135;47.866;-4.222;2022-07-10T00:43:24;21.10;63.00
44431;DHT22;30135;47.866;-4.222;2022-07-10T00:45:50;21.00;62.90
44431;DHT22;30135;47.866;-4.222;2022-07-10T00:48:16;21.00;62.90
44431;DHT22;30135;47.866;-4.222;2022-07-10T00:50:45;21.00;63.00
44431;DHT22;30135;47.866;-4.222;2022-07-10T00:53:13;21.00;63.10
44431;DHT22;30135;47.866;-4.222;2022-07-10T00:55:40;21.00;63.10
44431;DHT22;30135;47.866;-4.222;2022-07-10T00:58:07;20.90;63.90
44431;DHT22;30135;47.866;-4.222;2022-07-10T01:00:36;20.90;63.20
44431;DHT22;30135;47.866;-4.222;2022-07-10T01:03:06;20.90;63.20
44431;DHT22;30135;47.866;-4.222;2022-07-10T01:05:32;20.90;63.20
44431;DHT22;30135;47.866;-4.222;2022-07-10T01:07:58;20.80;63.20
44431;DHT22;30135;47.866;-4.222;2022-07-10T01:10:24;20.80;63.30
44431;DHT22;30135;47.866;-4.222;2022-07-10T01:12:50;20.80;63.30
44431;DHT22;30135;47.866;-4.222;2022-07-10T01:15:16;20.80;63.40
44431;DHT22;30135;47.866;-4.222;2022-07-10T01:17:42;20.80;63.50
44431;DHT22;30135;47.866;-4.222;2022-07-10T01:20:09;20.70;63.50
44431;DHT22;30135;47.866;-4.222;2022-07-10T01:22:37;20.70;63.50
44431;DHT22;30135;47.866;-4.222;2022-07-10T01:25:03;20.70;63.70
44431;DHT22;30135;47.866;-4.222;2022-07-10T01:27:31;20.70;63.80
44431;DHT22;30135;47.866;-4.222;2022-07-10T01:29:57;20.70;63.80
44431;DHT22;30135;47.866;-4.222;2022-07-10T01:32:24;20.70;63.90
44431;DHT22;30135;47.866;-4.222;2022-07-10T01:34:50;20.60;63.90
44431;DHT22;30135;47.866;-4.222;2022-07-10T01:37:16;20.60;64.00
44431;DHT22;30135;47.866;-4.222;2022-07-10T01:39:42;20.60;64.10
44431;DHT22;30135;47.866;-4.222;2022-07-10T01:42:08;20.60;64.20
44431;DHT22;30135;47.866;-4.222;2022-07-10T01:44:34;20.50;64.20
44431;DHT22;30135;47.866;-4.222;2022-07-10T01:47:00;20.50;64.30
44431;DHT22;30135;47.866;-4.222;2022-07-10T01:49:26;20.50;64.30
44431;DHT22;30135;47.866;-4.222;2022-07-10T01:51:52;20.50;64.50
44431;DHT22;30135;47.866;-4.222;2022-07-10T01:54:18;20.40;64.50
44431;DHT22;30135;47.866;-4.222;2022-07-10T01:56:43;20.40;64.60
44431;DHT22;30135;47.866;-4.222;2022-07-10T01:59:11;20.40;64.70
44431;DHT22;30135;47.866;-4.222;2022-07-10T02:01:36;20.40;64.90
44431;DHT22;30135;47.866;-4.222;2022-07-10T02:04:03;20.40;65.00
44431;DHT22;30135;47.866;-4.222;2022-07-10T02:06:47;20.30;65.00
44431;DHT22;30135;47.866;-4.222;2022-07-10T02:09:13;20.30;65.10
44431;DHT22;30135;47.866;-4.222;2022-07-10T02:11:41;20.30;65.20
44431;DHT22;30135;47.866;-4.222;2022-07-10T02:14:07;20.20;65.30
44431;DHT22;30135;47.866;-4.222;2022-07-10T02:16:34;20.20;65.40
44431;DHT22;30135;47.866;-4.222;2022-07-10T02:19:01;20.20;65.50
44431;DHT22;30135;47.866;-4.222;2022-07-10T02:21:28;20.10;65.60
44431;DHT22;30135;47.866;-4.222;2022-07-10T02:23:53;20.10;65.80
44431;DHT22;30135;47.866;-4.222;2022-07-10T02:26:19;20.10;65.80
44431;DHT22;30135;47.866;-4.222;2022-07-10T02:28:46;20.10;65.90
44431;DHT22;30135;47.866;-4.222;2022-07-10T02:31:11;20.10;65.90
44431;DHT22;30135;47.866;-4.222;2022-07-10T02:33:37;20.00;65.90
44431;DHT22;30135;47.866;-4.222;2022-07-10T02:36:04;20.00;66.00
44431;DHT22;30135;47.866;-4.222;2022-07-10T02:38:31;20.00;66.10
44431;DHT22;30135;47.866;-4.222;2022-07-10T02:40:57;19.90;66.20
44431;DHT22;30135;47.866;-4.222;2022-07-10T02:43:23;19.90;66.30
44431;DHT22;30135;47.866;-4.222;2022-07-10T02:45:49;19.90;66.40
44431;DHT22;30135;47.866;-4.222;2022-07-10T02:48:15;19.90;66.40
44431;DHT22;30135;47.866;-4.222;2022-07-10T02:50:42;19.80;66.40
44431;DHT22;30135;47.866;-4.222;2022-07-10T02:53:08;19.80;66.50
44431;DHT22;30135;47.866;-4.222;2022-07-10T02:55:34;19.80;66.60
44431;DHT22;30135;47.866;-4.222;2022-07-10T02:58:00;19.80;66.70
44431;DHT22;30135;47.866;-4.222;2022-07-10T03:00:27;19.70;66.80
44431;DHT22;30135;47.866;-4.222;2022-07-10T03:02:54;19.70;66.80
44431;DHT22;30135;47.866;-4.222;2022-07-10T03:05:21;19.70;66.90
44431;DHT22;30135;47.866;-4.222;2022-07-10T03:07:47;19.70;67.00
44431;DHT22;30135;47.866;-4.222;2022-07-10T03:10:13;19.60;67.00
44431;DHT22;30135;47.866;-4.222;2022-07-10T03:12:39;19.60;67.20
44431;DHT22;30135;47.866;-4.222;2022-07-10T03:15:06;19.60;67.20
44431;DHT22;30135;47.866;-4.222;2022-07-10T03:17:32;19.60;67.20
44431;DHT22;30135;47.866;-4.222;2022-07-10T03:19:58;19.50;67.30
44431;DHT22;30135;47.866;-4.222;2022-07-10T03:22:26;19.50;67.40
44431;DHT22;30135;47.866;-4.222;2022-07-10T03:24:54;19.50;67.50
44431;DHT22;30135;47.866;-4.222;2022-07-10T03:27:20;19.50;68.40
44431;DHT22;30135;47.866;-4.222;2022-07-10T03:29:46;19.50;67.60
44431;DHT22;30135;47.866;-4.222;2022-07-10T03:32:12;19.50;67.70
44431;DHT22;30135;47.866;-4.222;2022-07-10T03:34:39;19.40;67.70
44431;DHT22;30135;47.866;-4.222;2022-07-10T03:37:05;19.40;67.80
44431;DHT22;30135;47.866;-4.222;2022-07-10T03:39:31;19.40;67.90
44431;DHT22;30135;47.866;-4.222;2022-07-10T03:41:57;19.40;68.00
44431;DHT22;30135;47.866;-4.222;2022-07-10T03:44:23;19.30;68.10
44431;DHT22;30135;47.866;-4.222;2022-07-10T03:46:49;19.30;68.10
44431;DHT22;30135;47.866;-4.222;2022-07-10T03:49:15;19.30;68.30
44431;DHT22;30135;47.866;-4.222;2022-07-10T03:51:41;19.30;68.40
44431;DHT22;30135;47.866;-4.222;2022-07-10T03:54:07;19.30;68.50
44431;DHT22;30135;47.866;-4.222;2022-07-10T03:56:33;19.20;68.50
44431;DHT22;30135;47.866;-4.222;2022-07-10T03:59:18;19.20;68.60
44431;DHT22;30135;47.866;-4.222;2022-07-10T04:01:44;19.20;68.70
44431;DHT22;30135;47.866;-4.222;2022-07-10T04:04:10;19.20;68.70
44431;DHT22;30135;47.866;-4.222;2022-07-10T04:06:36;19.20;68.80
44431;DHT22;30135;47.866;-4.222;2022-07-10T04:09:07;19.20;68.90
44431;DHT22;30135;47.866;-4.222;2022-07-10T04:11:33;19.20;69.10
44431;DHT22;30135;47.866;-4.222;2022-07-10T04:13:59;19.10;69.10
44431;DHT22;30135;47.866;-4.222;2022-07-10T04:16:25;19.10;69.30
44431;DHT22;30135;47.866;-4.222;2022-07-10T04:18:51;19.10;69.30
44431;DHT22;30135;47.866;-4.222;2022-07-10T04:21:17;19.10;69.40
44431;DHT22;30135;47.866;-4.222;2022-07-10T04:23:43;19.10;69.40
44431;DHT22;30135;47.866;-4.222;2022-07-10T04:26:09;19.10;69.50
44431;DHT22;30135;47.866;-4.222;2022-07-10T04:28:35;19.10;69.60
44431;DHT22;30135;47.866;-4.222;2022-07-10T04:31:01;19.10;70.50
44431;DHT22;30135;47.866;-4.222;2022-07-10T04:33:27;19.00;69.80
44431;DHT22;30135;47.866;-4.222;2022-07-10T04:35:53;19.00;69.90
44431;DHT22;30135;47.866;-4.222;2022-07-10T04:38:19;19.00;70.00
44431;DHT22;30135;47.866;-4.222;2022-07-10T04:40:44;19.00;70.10
44431;DHT22;30135;47.866;-4.222;2022-07-10T04:43:10;19.00;70.20
44431;DHT22;30135;47.866;-4.222;2022-07-10T04:45:36;19.00;70.20
44431;DHT22;30135;47.866;-4.222;2022-07-10T04:48:05;19.00;70.30
44431;DHT22;30135;47.866;-4.222;2022-07-10T04:50:32;19.00;70.40
44431;DHT22;30135;47.866;-4.222;2022-07-10T04:52:58;18.90;70.40
44431;DHT22;30135;47.866;-4.222;2022-07-10T04:55:24;18.90;70.50
44431;DHT22;30135;47.866;-4.222;2022-07-10T04:57:50;18.90;70.60
44431;DHT22;30135;47.866;-4.222;2022-07-10T05:00:16;18.90;70.70
44431;DHT22;30135;47.866;-4.222;2022-07-10T05:02:42;18.90;70.80
44431;DHT22;30135;47.866;-4.222;2022-07-10T05:05:08;18.90;70.70
44431;DHT22;30135;47.866;-4.222;2022-07-10T05:07:35;18.90;70.80
44431;DHT22;30135;47.866;-4.222;2022-07-10T05:10:01;18.90;70.90
44431;DHT22;30135;47.866;-4.222;2022-07-10T05:12:27;18.90;70.90
44431;DHT22;30135;47.866;-4.222;2022-07-10T05:14:53;18.90;71.00
44431;DHT22;30135;47.866;-4.222;2022-07-10T05:17:19;18.90;71.10
44431;DHT22;30135;47.866;-4.222;2022-07-10T05:19:45;18.90;71.20
44431;DHT22;30135;47.866;-4.222;2022-07-10T05:22:11;18.80;71.20
44431;DHT22;30135;47.866;-4.222;2022-07-10T05:24:37;18.80;71.20
44431;DHT22;30135;47.866;-4.222;2022-07-10T05:27:04;18.90;71.50
44431;DHT22;30135;47.866;-4.222;2022-07-10T05:29:30;18.90;71.50
44431;DHT22;30135;47.866;-4.222;2022-07-10T05:31:56;18.90;71.60
44431;DHT22;30135;47.866;-4.222;2022-07-10T05:34:28;18.90;71.60
44431;DHT22;30135;47.866;-4.222;2022-07-10T05:36:54;18.90;71.70
44431;DHT22;30135;47.866;-4.222;2022-07-10T05:39:20;18.80;71.60
44431;DHT22;30135;47.866;-4.222;2022-07-10T05:41:47;18.90;71.80
44431;DHT22;30135;47.866;-4.222;2022-07-10T05:44:13;18.90;71.90
44431;DHT22;30135;47.866;-4.222;2022-07-10T05:46:39;18.90;72.10
44431;DHT22;30135;47.866;-4.222;2022-07-10T05:49:05;18.90;72.10
44431;DHT22;30135;47.866;-4.222;2022-07-10T05:51:30;18.90;72.20
44431;DHT22;30135;47.866;-4.222;2022-07-10T05:53:57;18.90;72.30
44431;DHT22;30135;47.866;-4.222;2022-07-10T05:56:23;18.90;72.30
44431;DHT22;30135;47.866;-4.222;2022-07-10T05:58:48;18.90;72.40
44431;DHT22;30135;47.866;-4.222;2022-07-10T06:01:15;18.90;72.50
44431;DHT22;30135;47.866;-4.222;2022-07-10T06:03:41;18.90;72.50
44431;DHT22;30135;47.866;-4.222;2022-07-10T06:06:07;18.90;72.70
44431;DHT22;30135;47.866;-4.222;2022-07-10T06:08:32;19.00;72.70
44431;DHT22;30135;47.866;-4.222;2022-07-10T06:10:58;19.00;72.80
44431;DHT22;30135;47.866;-4.222;2022-07-10T06:13:24;19.00;72.80
44431;DHT22;30135;47.866;-4.222;2022-07-10T06:15:50;19.00;72.80
44431;DHT22;30135;47.866;-4.222;2022-07-10T06:18:16;19.10;73.00
44431;DHT22;30135;47.866;-4.222;2022-07-10T06:20:42;19.10;72.80
44431;DHT22;30135;47.866;-4.222;2022-07-10T06:23:08;19.10;72.80
44431;DHT22;30135;47.866;-4.222;2022-07-10T06:25:33;19.20;72.70
44431;DHT22;30135;47.866;-4.222;2022-07-10T06:27:59;19.20;72.50
44431;DHT22;30135;47.866;-4.222;2022-07-10T06:30:25;19.20;72.10
44431;DHT22;30135;47.866;-4.222;2022-07-10T06:32:51;19.30;71.70
44431;DHT22;30135;47.866;-4.222;2022-07-10T06:35:18;19.30;71.20
44431;DHT22;30135;47.866;-4.222;2022-07-10T06:37:43;19.40;70.80
44431;DHT22;30135;47.866;-4.222;2022-07-10T06:40:12;19.40;70.40
44431;DHT22;30135;47.866;-4.222;2022-07-10T06:42:40;19.40;70.10
44431;DHT22;30135;47.866;-4.222;2022-07-10T06:45:06;19.50;69.80
44431;DHT22;30135;47.866;-4.222;2022-07-10T06:47:33;19.50;69.40
44431;DHT22;30135;47.866;-4.222;2022-07-10T06:50:18;19.60;69.10
44431;DHT22;30135;47.866;-4.222;2022-07-10T06:52:44;19.60;68.50
44431;DHT22;30135;47.866;-4.222;2022-07-10T06:55:10;19.60;68.20
44431;DHT22;30135;47.866;-4.222;2022-07-10T06:57:38;19.60;67.70
44431;DHT22;30135;47.866;-4.222;2022-07-10T07:00:06;19.70;67.30
44431;DHT22;30135;47.866;-4.222;2022-07-10T07:02:33;19.70;66.90
44431;DHT22;30135;47.866;-4.222;2022-07-10T07:04:59;19.70;66.80
44431;DHT22;30135;47.866;-4.222;2022-07-10T07:07:24;19.80;66.20
44431;DHT22;30135;47.866;-4.222;2022-07-10T07:09:50;19.80;65.60
44431;DHT22;30135;47.866;-4.222;2022-07-10T07:12:17;19.80;65.20
44431;DHT22;30135;47.866;-4.222;2022-07-10T07:14:45;19.80;64.50
44431;DHT22;30135;47.866;-4.222;2022-07-10T07:17:12;19.90;64.10
44431;DHT22;30135;47.866;-4.222;2022-07-10T07:19:40;19.90;63.80
44431;DHT22;30135;47.866;-4.222;2022-07-10T07:22:27;20.00;63.10
44431;DHT22;30135;47.866;-4.222;2022-07-10T07:25:12;20.00;62.80
44431;DHT22;30135;47.866;-4.222;2022-07-10T07:27:39;20.00;62.80
44431;DHT22;30135;47.866;-4.222;2022-07-10T07:30:10;20.00;62.40
44431;DHT22;30135;47.866;-4.222;2022-07-10T07:32:38;20.10;62.20
44431;DHT22;30135;47.866;-4.222;2022-07-10T07:35:05;20.10;62.60
44431;DHT22;30135;47.866;-4.222;2022-07-10T07:37:40;20.10;61.50
44431;DHT22;30135;47.866;-4.222;2022-07-10T07:40:10;20.10;61.00
44431;DHT22;30135;47.866;-4.222;2022-07-10T07:42:38;20.10;60.90
44431;DHT22;30135;47.866;-4.222;2022-07-10T07:45:05;20.20;60.40
44431;DHT22;30135;47.866;-4.222;2022-07-10T07:50:20;20.30;59.30
44431;DHT22;30135;47.866;-4.222;2022-07-10T07:52:48;20.30;59.40
44431;DHT22;30135;47.866;-4.222;2022-07-10T07:55:16;20.40;59.10
44431;DHT22;30135;47.866;-4.222;2022-07-10T07:57:43;20.40;58.80
44431;DHT22;30135;47.866;-4.222;2022-07-10T08:00:10;20.50;58.60
44431;DHT22;30135;47.866;-4.222;2022-07-10T08:02:38;20.50;58.40
44431;DHT22;30135;47.866;-4.222;2022-07-10T08:05:07;20.50;58.20
44431;DHT22;30135;47.866;-4.222;2022-07-10T08:07:42;20.60;57.80
44431;DHT22;30135;47.866;-4.222;2022-07-10T08:10:11;20.70;57.70
44431;DHT22;30135;47.866;-4.222;2022-07-10T08:12:39;20.70;57.60
44431;DHT22;30135;47.866;-4.222;2022-07-10T08:15:10;20.70;57.60
44431;DHT22;30135;47.866;-4.222;2022-07-10T08:17:38;20.80;57.50
44431;DHT22;30135;47.866;-4.222;2022-07-10T08:20:05;20.80;57.50
44431;DHT22;30135;47.866;-4.222;2022-07-10T08:22:33;20.80;57.40
44431;DHT22;30135;47.866;-4.222;2022-07-10T08:24:59;20.90;57.30
44431;DHT22;30135;47.866;-4.222;2022-07-10T08:27:26;20.90;57.40
44431;DHT22;30135;47.866;-4.222;2022-07-10T08:29:52;21.00;57.30
44431;DHT22;30135;47.866;-4.222;2022-07-10T08:32:18;21.00;57.10
44431;DHT22;30135;47.866;-4.222;2022-07-10T08:34:44;21.00;57.00
44431;DHT22;30135;47.866;-4.222;2022-07-10T08:37:11;21.10;57.00
44431;DHT22;30135;47.866;-4.222;2022-07-10T08:39:37;21.10;57.10
44431;DHT22;30135;47.866;-4.222;2022-07-10T08:42:05;21.20;57.10
44431;DHT22;30135;47.866;-4.222;2022-07-10T08:44:33;21.20;57.00
44431;DHT22;30135;47.866;-4.222;2022-07-10T08:46:59;21.40;57.00
44431;DHT22;30135;47.866;-4.222;2022-07-10T08:49:30;21.40;57.00
44431;DHT22;30135;47.866;-4.222;2022-07-10T08:52:05;21.50;57.00
44431;DHT22;30135;47.866;-4.222;2022-07-10T08:54:35;21.50;56.90
44431;DHT22;30135;47.866;-4.222;2022-07-10T08:57:03;21.60;57.00
44431;DHT22;30135;47.866;-4.222;2022-07-10T08:59:29;21.60;56.80
44431;DHT22;30135;47.866;-4.222;2022-07-10T09:01:56;21.70;56.80
44431;DHT22;30135;47.866;-4.222;2022-07-10T09:04:24;21.70;56.80
44431;DHT22;30135;47.866;-4.222;2022-07-10T09:06:52;21.80;56.80
44431;DHT22;30135;47.866;-4.222;2022-07-10T09:09:20;21.80;56.60
44431;DHT22;30135;47.866;-4.222;2022-07-10T09:11:46;21.90;56.40
44431;DHT22;30135;47.866;-4.222;2022-07-10T09:14:16;22.00;56.10
44431;DHT22;30135;47.866;-4.222;2022-07-10T09:16:47;22.10;55.80
44431;DHT22;30135;47.866;-4.222;2022-07-10T09:21:55;22.20;55.90
44431;DHT22;30135;47.866;-4.222;2022-07-10T09:24:39;22.20;55.40
44431;DHT22;30135;47.866;-4.222;2022-07-10T09:27:07;22.30;55.60
44431;DHT22;30135;47.866;-4.222;2022-07-10T09:29:49;22.40;55.50
44431;DHT22;30135;47.866;-4.222;2022-07-10T09:32:36;22.50;55.30
44431;DHT22;30135;47.866;-4.222;2022-07-10T09:35:02;22.50;55.30
44431;DHT22;30135;47.866;-4.222;2022-07-10T09:38:03;22.60;55.30
44431;DHT22;30135;47.866;-4.222;2022-07-10T09:40:29;22.70;55.00
44431;DHT22;30135;47.866;-4.222;2022-07-10T09:42:55;22.80;54.90
44431;DHT22;30135;47.866;-4.222;2022-07-10T09:45:22;22.80;54.70
44431;DHT22;30135;47.866;-4.222;2022-07-10T09:47:54;22.90;54.70
44431;DHT22;30135;47.866;-4.222;2022-07-10T09:50:36;23.00;54.40
44431;DHT22;30135;47.866;-4.222;2022-07-10T09:53:07;23.10;53.90
44431;DHT22;30135;47.866;-4.222;2022-07-10T09:55:36;23.10;53.40
44431;DHT22;30135;47.866;-4.222;2022-07-10T09:58:06;23.20;53.50
44431;DHT22;30135;47.866;-4.222;2022-07-10T10:00:37;23.30;53.00
44431;DHT22;30135;47.866;-4.222;2022-07-10T10:03:08;23.40;53.10
44431;DHT22;30135;47.866;-4.222;2022-07-10T10:05:37;23.40;53.10
44431;DHT22;30135;47.866;-4.222;2022-07-10T10:08:12;23.50;53.30
44431;DHT22;30135;47.866;-4.222;2022-07-10T10:10:49;23.50;52.80
44431;DHT22;30135;47.866;-4.222;2022-07-10T10:13:24;23.60;52.60
44431;DHT22;30135;47.866;-4.222;2022-07-10T10:15:53;23.80;52.50
44431;DHT22;30135;47.866;-4.222;2022-07-10T10:18:25;23.80;52.00
44431;DHT22;30135;47.866;-4.222;2022-07-10T10:20:55;23.90;51.70
44431;DHT22;30135;47.866;-4.222;2022-07-10T10:23:23;23.90;52.00
44431;DHT22;30135;47.866;-4.222;2022-07-10T10:25:54;24.00;51.90
44431;DHT22;30135;47.866;-4.222;2022-07-10T10:28:23;24.00;51.50
44431;DHT22;30135;47.866;-4.222;2022-07-10T10:30:55;24.00;51.40
44431;DHT22;30135;47.866;-4.222;2022-07-10T10:36:00;24.20;51.10
44431;DHT22;30135;47.866;-4.222;2022-07-10T10:46:34;24.60;50.80
44431;DHT22;30135;47.866;-4.222;2022-07-10T10:49:08;24.50;50.90
44431;DHT22;30135;47.866;-4.222;2022-07-10T10:57:23;24.80;50.80
44431;DHT22;30135;47.866;-4.222;2022-07-10T11:00:05;24.90;50.60
44431;DHT22;30135;47.866;-4.222;2022-07-10T11:02:34;25.00;50.30
44431;DHT22;30135;47.866;-4.222;2022-07-10T11:08:02;25.10;49.40
44431;DHT22;30135;47.866;-4.222;2022-07-10T11:10:37;25.20;48.80
44431;DHT22;30135;47.866;-4.222;2022-07-10T11:13:06;25.20;49.10
44431;DHT22;30135;47.866;-4.222;2022-07-10T11:15:43;25.30;49.10
44431;DHT22;30135;47.866;-4.222;2022-07-10T11:18:18;25.40;49.30
44431;DHT22;30135;47.866;-4.222;2022-07-10T11:20:51;25.50;49.40
44431;DHT22;30135;47.866;-4.222;2022-07-10T11:29:18;25.70;48.60
44431;DHT22;30135;47.866;-4.222;2022-07-10T11:31:52;25.70;49.00
44431;DHT22;30135;47.866;-4.222;2022-07-10T11:34:21;25.80;48.90
44431;DHT22;30135;47.866;-4.222;2022-07-10T11:36:47;25.90;48.90
44431;DHT22;30135;47.866;-4.222;2022-07-10T11:39:13;25.90;48.80
44431;DHT22;30135;47.866;-4.222;2022-07-10T11:41:43;26.00;48.60
44431;DHT22;30135;47.866;-4.222;2022-07-10T11:44:15;26.10;48.40
44431;DHT22;30135;47.866;-4.222;2022-07-10T11:46:42;26.10;48.20
44431;DHT22;30135;47.866;-4.222;2022-07-10T11:49:14;26.20;48.30
44431;DHT22;30135;47.866;-4.222;2022-07-10T11:51:42;26.30;48.30
44431;DHT22;30135;47.866;-4.222;2022-07-10T11:54:16;26.30;48.60
44431;DHT22;30135;47.866;-4.222;2022-07-10T11:56:48;26.30;47.70
44431;DHT22;30135;47.866;-4.222;2022-07-10T11:59:17;26.40;47.20
44431;DHT22;30135;47.866;-4.222;2022-07-10T12:01:47;26.40;47.20
44431;DHT22;30135;47.866;-4.222;2022-07-10T12:04:16;26.50;47.20
44431;DHT22;30135;47.866;-4.222;2022-07-10T12:06:45;26.60;47.10
44431;DHT22;30135;47.866;-4.222;2022-07-10T12:09:14;26.60;46.90
44431;DHT22;30135;47.866;-4.222;2022-07-10T12:11:42;26.70;47.10
44431;DHT22;30135;47.866;-4.222;2022-07-10T12:14:14;26.70;47.00
44431;DHT22;30135;47.866;-4.222;2022-07-10T12:16:43;26.70;46.50
44431;DHT22;30135;47.866;-4.222;2022-07-10T12:19:15;26.80;46.50
44431;DHT22;30135;47.866;-4.222;2022-07-10T12:21:43;26.80;46.30
44431;DHT22;30135;47.866;-4.222;2022-07-10T12:24:12;26.90;46.20
44431;DHT22;30135;47.866;-4.222;2022-07-10T12:26:41;26.90;46.30
44431;DHT22;30135;47.866;-4.222;2022-07-10T12:29:11;27.00;46.10
44431;DHT22;30135;47.866;-4.222;2022-07-10T12:31:44;27.00;45.00
44431;DHT22;30135;47.866;-4.222;2022-07-10T12:34:12;27.10;46.00
44431;DHT22;30135;47.866;-4.222;2022-07-10T12:36:52;27.10;45.70
44431;DHT22;30135;47.866;-4.222;2022-07-10T12:39:24;27.10;45.50
44431;DHT22;30135;47.866;-4.222;2022-07-10T12:42:01;27.20;45.60
44431;DHT22;30135;47.866;-4.222;2022-07-10T12:44:36;27.20;45.10
44431;DHT22;30135;47.866;-4.222;2022-07-10T12:47:03;27.20;45.10
44431;DHT22;30135;47.866;-4.222;2022-07-10T12:49:54;27.30;45.10
44431;DHT22;30135;47.866;-4.222;2022-07-10T12:55:14;27.30;45.00
44431;DHT22;30135;47.866;-4.222;2022-07-10T12:57:50;27.40;44.70
44431;DHT22;30135;47.866;-4.222;2022-07-10T13:00:22;27.50;44.60
44431;DHT22;30135;47.866;-4.222;2022-07-10T13:02:56;27.50;44.50
44431;DHT22;30135;47.866;-4.222;2022-07-10T13:05:32;27.50;44.40
44431;DHT22;30135;47.866;-4.222;2022-07-10T13:08:12;27.60;44.20
44431;DHT22;30135;47.866;-4.222;2022-07-10T13:10:49;27.60;44.30
44431;DHT22;30135;47.866;-4.222;2022-07-10T13:13:19;27.60;44.00
44431;DHT22;30135;47.866;-4.222;2022-07-10T13:15:46;27.70;44.00
44431;DHT22;30135;47.866;-4.222;2022-07-10T13:18:20;27.70;44.00
44431;DHT22;30135;47.866;-4.222;2022-07-10T13:20:49;27.80;43.90
44431;DHT22;30135;47.866;-4.222;2022-07-10T13:23:19;27.80;43.80
44431;DHT22;30135;47.866;-4.222;2022-07-10T13:25:49;27.80;43.70
44431;DHT22;30135;47.866;-4.222;2022-07-10T13:28:15;27.90;43.10
44431;DHT22;30135;47.866;-4.222;2022-07-10T13:30:42;27.90;43.00
44431;DHT22;30135;47.866;-4.222;2022-07-10T13:33:09;27.90;42.70
44431;DHT22;30135;47.866;-4.222;2022-07-10T13:35:35;27.90;42.30
44431;DHT22;30135;47.866;-4.222;2022-07-10T13:38:03;28.00;42.10
44431;DHT22;30135;47.866;-4.222;2022-07-10T13:40:34;28.00;41.90
44431;DHT22;30135;47.866;-4.222;2022-07-10T13:43:01;28.00;41.30
44431;DHT22;30135;47.866;-4.222;2022-07-10T13:45:29;28.00;41.40
44431;DHT22;30135;47.866;-4.222;2022-07-10T13:48:03;28.00;41.10
44431;DHT22;30135;47.866;-4.222;2022-07-10T13:50:29;28.00;40.70
44431;DHT22;30135;47.866;-4.222;2022-07-10T13:52:55;28.00;41.40
44431;DHT22;30135;47.866;-4.222;2022-07-10T13:55:22;28.00;40.90
44431;DHT22;30135;47.866;-4.222;2022-07-10T13:57:47;28.10;40.80
44431;DHT22;30135;47.866;-4.222;2022-07-10T14:00:14;28.10;40.50
44431;DHT22;30135;47.866;-4.222;2022-07-10T14:02:40;28.10;40.60
44431;DHT22;30135;47.866;-4.222;2022-07-10T14:05:06;28.20;40.40
44431;DHT22;30135;47.866;-4.222;2022-07-10T14:07:36;28.20;40.10
44431;DHT22;30135;47.866;-4.222;2022-07-10T14:10:03;28.20;40.10
44431;DHT22;30135;47.866;-4.222;2022-07-10T14:12:30;28.20;40.30
44431;DHT22;30135;47.866;-4.222;2022-07-10T14:14:57;28.20;40.40
44431;DHT22;30135;47.866;-4.222;2022-07-10T14:17:24;28.20;40.10
44431;DHT22;30135;47.866;-4.222;2022-07-10T14:19:51;28.20;40.00
44431;DHT22;30135;47.866;-4.222;2022-07-10T14:22:18;28.20;39.80
44431;DHT22;30135;47.866;-4.222;2022-07-10T14:24:44;28.30;40.00
44431;DHT22;30135;47.866;-4.222;2022-07-10T14:27:10;28.30;39.30
44431;DHT22;30135;47.866;-4.222;2022-07-10T14:29:36;28.30;40.20
44431;DHT22;30135;47.866;-4.222;2022-07-10T14:32:02;28.30;39.10
44431;DHT22;30135;47.866;-4.222;2022-07-10T14:34:29;28.30;39.00
44431;DHT22;30135;47.866;-4.222;2022-07-10T14:36:55;28.30;38.80
44431;DHT22;30135;47.866;-4.222;2022-07-10T14:39:21;28.30;38.50
44431;DHT22;30135;47.866;-4.222;2022-07-10T14:41:47;28.30;38.60
44431;DHT22;30135;47.866;-4.222;2022-07-10T14:44:13;28.30;38.70
44431;DHT22;30135;47.866;-4.222;2022-07-10T14:46:39;28.30;38.90
44431;DHT22;30135;47.866;-4.222;2022-07-10T14:49:05;28.30;38.90
44431;DHT22;30135;47.866;-4.222;2022-07-10T14:51:31;28.30;38.70
44431;DHT22;30135;47.866;-4.222;2022-07-10T14:53:59;28.30;38.70
44431;DHT22;30135;47.866;-4.222;2022-07-10T14:56:25;28.30;38.50
44431;DHT22;30135;47.866;-4.222;2022-07-10T14:58:51;28.30;38.60
44431;DHT22;30135;47.866;-4.222;2022-07-10T15:01:17;28.30;38.60
44431;DHT22;30135;47.866;-4.222;2022-07-10T15:03:43;28.30;38.40
44431;DHT22;30135;47.866;-4.222;2022-07-10T15:06:09;28.40;38.30
44431;DHT22;30135;47.866;-4.222;2022-07-10T15:08:36;28.40;38.30
44431;DHT22;30135;47.866;-4.222;2022-07-10T15:11:02;28.40;38.70
44431;DHT22;30135;47.866;-4.222;2022-07-10T15:13:30;28.30;38.50
44431;DHT22;30135;47.866;-4.222;2022-07-10T15:15:56;28.30;38.10
44431;DHT22;30135;47.866;-4.222;2022-07-10T15:18:22;28.30;37.50
44431;DHT22;30135;47.866;-4.222;2022-07-10T15:20:48;28.30;37.80
44431;DHT22;30135;47.866;-4.222;2022-07-10T15:23:15;28.30;37.90
44431;DHT22;30135;47.866;-4.222;2022-07-10T15:25:41;28.30;38.10
44431;DHT22;30135;47.866;-4.222;2022-07-10T15:28:08;28.30;37.80
44431;DHT22;30135;47.866;-4.222;2022-07-10T15:30:36;28.30;38.00
44431;DHT22;30135;47.866;-4.222;2022-07-10T15:33:03;28.30;37.60
44431;DHT22;30135;47.866;-4.222;2022-07-10T15:35:31;28.30;37.50
44431;DHT22;30135;47.866;-4.222;2022-07-10T15:37:57;28.20;37.80
44431;DHT22;30135;47.866;-4.222;2022-07-10T15:40:28;28.20;38.10
44431;DHT22;30135;47.866;-4.222;2022-07-10T15:42:55;28.20;38.00
44431;DHT22;30135;47.866;-4.222;2022-07-10T15:45:26;28.20;38.10
44431;DHT22;30135;47.866;-4.222;2022-07-10T15:47:53;28.20;38.10
44431;DHT22;30135;47.866;-4.222;2022-07-10T15:50:19;28.20;37.90
44431;DHT22;30135;47.866;-4.222;2022-07-10T15:52:46;28.20;37.90
44431;DHT22;30135;47.866;-4.222;2022-07-10T15:55:12;28.20;37.50